createdAt,value
2023-04-17T00:02:04.146Z,17.73
2023-04-17T00:05:09.521Z,18.83
2023-04-17T00:08:13.843Z,18.25
2023-04-17T00:11:18.743Z,19.87
2023-04-17T00:14:24.333Z,18.27
2023-04-17T00:17:27.866Z,21.95
2023-04-17T00:20:31.852Z,18.38
2023-04-17T00:23:35.341Z,18.27
2023-04-17T00:26:39.372Z,21.55
2023-04-17T00:29:44.141Z,18.63
2023-04-17T00:32:48.329Z,21.90
2023-04-17T00:35:52.388Z,17.70
2023-04-17T00:38:56.290Z,19.15
2023-04-17T00:42:00.203Z,19.07
2023-04-17T00:45:10.791Z,16.30
2023-04-17T00:48:17.720Z,17.13
2023-04-17T00:51:22.225Z,19.25
2023-04-17T00:54:26.626Z,20.98
2023-04-17T00:57:31.165Z,20.13
2023-04-17T01:00:36.526Z,21.80
2023-04-17T01:03:40.848Z,21.30
2023-04-17T01:06:44.720Z,19.75
2023-04-17T01:09:48.960Z,23.15
2023-04-17T01:13:03.729Z,23.90
2023-04-17T01:16:09.920Z,21.05
2023-04-17T01:19:16.596Z,22.10
2023-04-17T01:22:21.104Z,17.55
2023-04-17T01:25:30.161Z,17.23
2023-04-17T01:28:34.352Z,19.83
2023-04-17T01:31:37.930Z,23.20
2023-04-17T01:34:41.808Z,20.33
2023-04-17T01:37:45.337Z,21.88
2023-04-17T01:40:51.037Z,25.92
2023-04-17T01:43:54.446Z,29.27
2023-04-17T01:46:58.314Z,29.08
2023-04-17T01:50:01.875Z,32.10
2023-04-17T01:53:06.007Z,27.50
2023-04-17T01:56:11.591Z,28.75
2023-04-17T01:59:15.667Z,31.05
2023-04-17T02:02:19.249Z,30.88
2023-04-17T02:05:23.272Z,29.30
2023-04-17T02:08:27.127Z,30.27
2023-04-17T02:11:32.650Z,31.73
2023-04-17T02:14:36.125Z,31.83
2023-04-17T02:17:40.219Z,30.77
2023-04-17T02:20:47.308Z,33.90
2023-04-17T02:23:51.574Z,33.45
2023-04-17T02:26:56.807Z,35.30
2023-04-17T02:30:00.858Z,29.05
2023-04-17T02:33:04.471Z,28.92
2023-04-17T02:36:09.502Z,31.75
2023-04-17T02:39:18.635Z,25.23
2023-04-17T02:42:24.065Z,27.90
2023-04-17T02:45:27.583Z,27.77
2023-04-17T02:48:33.196Z,23.42
2023-04-17T02:51:36.741Z,28.23
2023-04-17T02:54:40.878Z,20.50
2023-04-17T02:57:46.722Z,23.48
2023-04-17T03:00:50.841Z,23.02
2023-04-17T03:03:55.929Z,21.08
2023-04-17T03:07:00.444Z,23.53
2023-04-17T03:10:06.309Z,25.45
2023-04-17T03:13:11.836Z,22.75
2023-04-17T03:16:15.545Z,21.20
2023-04-17T03:19:21.583Z,23.77
2023-04-17T03:22:25.028Z,22.42
2023-04-17T03:25:29.175Z,21.70
2023-04-17T03:28:34.202Z,20.15
2023-04-17T03:31:39.391Z,23.95
2023-04-17T03:34:42.829Z,27.85
2023-04-17T03:37:46.826Z,29.90
2023-04-17T03:40:50.776Z,27.90
2023-04-17T03:43:57.267Z,23.02
2023-04-17T03:47:00.716Z,28.23
2023-04-17T03:50:05.177Z,31.15
2023-04-17T03:53:13.378Z,24.10
2023-04-17T03:56:17.768Z,28.70
2023-04-17T03:59:23.532Z,29.02
2023-04-17T04:02:27.936Z,31.95
2023-04-17T04:05:31.637Z,35.70
2023-04-17T04:08:35.775Z,35.00
2023-04-17T04:11:39.169Z,30.35
2023-04-17T04:14:44.494Z,27.45
2023-04-17T04:17:49.270Z,41.07
2023-04-17T04:20:53.809Z,33.30
2023-04-17T04:24:04.127Z,29.95
2023-04-17T04:27:09.295Z,34.03
2023-04-17T04:30:15.650Z,36.88
2023-04-17T04:33:22.550Z,31.67
2023-04-17T04:36:29.858Z,34.13
2023-04-17T04:39:47.379Z,33.90
2023-04-17T04:42:52.240Z,28.02
2023-04-17T04:46:02.185Z,36.75
2023-04-17T04:49:08.792Z,32.30
2023-04-17T04:52:13.095Z,35.92
2023-04-17T04:55:16.693Z,28.98
2023-04-17T04:58:26.374Z,28.95
2023-04-17T05:01:34.081Z,25.52
2023-04-17T05:04:38.460Z,30.90
2023-04-17T05:07:42.825Z,43.70
2023-04-17T05:10:51.165Z,28.00
2023-04-17T05:13:55.002Z,23.58
2023-04-17T05:17:07.415Z,20.73
2023-04-17T05:20:13.118Z,29.97
2023-04-17T05:23:24.308Z,24.38
2023-04-17T05:26:28.729Z,31.65
2023-04-17T05:29:33.135Z,24.38
2023-04-17T05:32:38.038Z,27.63
2023-04-17T05:35:58.662Z,21.60
2023-04-17T05:39:02.047Z,32.22
2023-04-17T05:42:06.986Z,33.97
2023-04-17T05:45:14.574Z,29.15
2023-04-17T05:48:20.116Z,22.92
2023-04-17T05:51:23.554Z,27.70
2023-04-17T05:54:29.133Z,36.78
2023-04-17T05:57:33.865Z,26.98
2023-04-17T06:00:38.468Z,28.45
2023-04-17T06:03:46.590Z,20.20
2023-04-17T06:06:57.519Z,26.45
2023-04-17T06:10:01.135Z,31.35
2023-04-17T06:13:05.198Z,21.37
2023-04-17T06:16:08.883Z,28.60
2023-04-17T06:19:14.082Z,28.73
2023-04-17T06:22:17.697Z,21.43
2023-04-17T06:25:21.516Z,21.33
2023-04-17T06:28:25.028Z,21.50
2023-04-17T06:31:31.266Z,18.23
2023-04-17T06:34:41.361Z,18.15
2023-04-17T06:37:52.044Z,16.70
2023-04-17T06:40:55.458Z,17.70
2023-04-17T06:43:59.668Z,20.33
2023-04-17T06:47:17.095Z,23.92
2023-04-17T06:50:22.574Z,20.88
2023-04-17T06:53:27.183Z,23.70
2023-04-17T06:56:31.592Z,22.95
2023-04-17T06:59:35.505Z,23.65
2023-04-17T07:02:39.274Z,19.60
2023-04-17T07:05:45.721Z,22.20
2023-04-17T07:08:49.479Z,21.67
2023-04-17T07:11:52.877Z,19.80
2023-04-17T07:14:57.357Z,21.03
2023-04-17T07:18:00.976Z,23.85
2023-04-17T07:21:06.221Z,21.55
2023-04-17T07:24:09.711Z,25.17
2023-04-17T07:27:13.774Z,24.77
2023-04-17T07:30:17.325Z,26.35
2023-04-17T07:33:21.180Z,27.20
2023-04-17T07:36:28.417Z,27.70
2023-04-17T07:39:32.440Z,22.77
2023-04-17T07:42:35.849Z,24.80
2023-04-17T07:45:41.715Z,24.87
2023-04-17T07:48:46.092Z,23.45
2023-04-17T07:51:51.827Z,25.00
2023-04-17T07:54:55.328Z,25.00
2023-04-17T07:58:01.936Z,26.85
2023-04-17T08:01:06.172Z,25.40
2023-04-17T08:04:10.696Z,23.13
2023-04-17T08:07:15.645Z,26.00
2023-04-17T08:10:19.842Z,25.00
2023-04-17T08:13:23.264Z,23.25
2023-04-17T08:16:27.244Z,24.87
2023-04-17T08:19:30.868Z,21.63
2023-04-17T08:22:40.948Z,23.90
2023-04-17T08:25:45.980Z,20.80
2023-04-17T08:28:49.700Z,20.15
2023-04-17T08:32:00.275Z,22.98
2023-04-17T08:35:13.441Z,24.90
2023-04-17T08:38:18.194Z,21.33
2023-04-17T08:41:26.781Z,22.70
2023-04-17T08:44:30.693Z,24.02
2023-04-17T08:47:35.957Z,20.67
2023-04-17T08:50:39.917Z,25.38
2023-04-17T08:53:45.098Z,24.17
2023-04-17T08:56:48.676Z,20.97
2023-04-17T08:59:52.509Z,22.13
2023-04-17T09:02:57.949Z,22.35
2023-04-17T09:06:02.028Z,20.67
2023-04-17T09:09:06.827Z,19.83
2023-04-17T09:12:11.542Z,18.27
2023-04-17T09:15:19.161Z,17.65
2023-04-17T09:18:25.950Z,22.23
2023-04-17T09:21:29.794Z,24.05
2023-04-17T09:24:38.558Z,21.55
2023-04-17T09:27:41.905Z,21.90
2023-04-17T09:30:45.716Z,20.52
2023-04-17T09:33:58.840Z,21.30
2023-04-17T09:37:03.408Z,20.27
2023-04-17T09:40:12.009Z,22.85
2023-04-17T09:43:15.971Z,24.98
2023-04-17T09:46:38.188Z,20.38
2023-04-17T09:49:49.769Z,20.60
2023-04-17T09:52:55.966Z,22.30
2023-04-17T09:56:05.732Z,22.52
2023-04-17T09:59:09.880Z,20.27
2023-04-17T10:02:16.655Z,18.30
2023-04-17T10:05:21.307Z,19.65
2023-04-17T10:08:25.420Z,17.80
2023-04-17T10:11:37.233Z,21.05
2023-04-17T10:14:46.665Z,15.60
2023-04-17T10:17:50.766Z,19.00
2023-04-17T10:20:55.672Z,16.03
2023-04-17T10:23:59.427Z,17.48
2023-04-17T10:27:55.777Z,15.85
2023-04-17T10:31:01.264Z,14.23
2023-04-17T10:34:04.819Z,16.98
2023-04-17T10:37:08.572Z,14.80
2023-04-17T10:40:14.108Z,17.90
2023-04-17T10:43:22.377Z,15.50
2023-04-17T10:46:27.668Z,12.80
2023-04-17T10:49:50.232Z,13.68
2023-04-17T10:52:54.008Z,14.10
2023-04-17T10:55:58.594Z,17.17
2023-04-17T10:59:06.221Z,14.90
2023-04-17T11:02:10.103Z,12.32
2023-04-17T11:05:14.780Z,12.02
2023-04-17T11:08:18.467Z,12.88
2023-04-17T11:11:35.307Z,15.73
2023-04-17T11:14:47.364Z,14.50
2023-04-17T11:17:51.246Z,11.73
2023-04-17T11:20:54.959Z,10.20
2023-04-17T11:23:58.694Z,12.68
2023-04-17T11:27:03.390Z,9.50
2023-04-17T11:30:10.339Z,9.48
2023-04-17T11:33:14.174Z,7.47
2023-04-17T11:36:18.155Z,10.80
2023-04-17T11:39:25.627Z,9.63
2023-04-17T11:42:29.385Z,10.80
2023-04-17T11:45:35.620Z,10.48
2023-04-17T11:48:39.566Z,8.00
2023-04-17T11:51:46.719Z,10.15
2023-04-17T11:54:59.241Z,7.82
2023-04-17T11:58:06.945Z,9.27
2023-04-17T12:01:13.353Z,9.10
2023-04-17T12:04:22.399Z,10.00
2023-04-17T12:07:26.242Z,8.65
2023-04-17T12:10:41.776Z,10.73
2023-04-17T12:13:45.552Z,10.07
2023-04-17T12:16:51.879Z,9.98
2023-04-17T12:19:55.838Z,12.88
2023-04-17T12:22:59.544Z,8.02
2023-04-17T12:26:03.571Z,8.87
2023-04-17T12:29:07.228Z,10.10
2023-04-17T12:32:12.397Z,10.05
2023-04-17T12:35:17.011Z,7.50
2023-04-17T12:38:20.794Z,9.23
2023-04-17T12:41:26.539Z,11.68
2023-04-17T12:44:30.364Z,12.27
2023-04-17T12:47:35.568Z,11.00
2023-04-17T12:50:42.684Z,10.52
2023-04-17T12:53:47.722Z,10.80
2023-04-17T12:56:51.310Z,10.80
2023-04-17T12:59:55.654Z,9.23
2023-04-17T13:03:01.126Z,9.23
2023-04-17T13:06:05.279Z,10.38
2023-04-17T13:09:08.846Z,9.35
2023-04-17T13:12:13.274Z,12.15
2023-04-17T13:15:17.538Z,12.80
2023-04-17T13:18:22.575Z,12.00
2023-04-17T13:21:26.863Z,11.07
2023-04-17T13:24:30.497Z,9.30
2023-04-17T13:27:34.254Z,11.57
2023-04-17T13:30:38.132Z,12.18
2023-04-17T13:33:43.064Z,11.75
2023-04-17T13:36:48.725Z,9.52
2023-04-17T13:39:52.099Z,10.25
2023-04-17T13:42:55.772Z,8.88
2023-04-17T13:45:59.579Z,9.90
2023-04-17T13:49:04.879Z,13.87
2023-04-17T13:52:08.721Z,12.18
2023-04-17T13:55:14.693Z,15.18
2023-04-17T13:58:18.541Z,11.02
2023-04-17T14:01:22.649Z,10.27
2023-04-17T14:04:28.650Z,8.80
2023-04-17T14:07:32.594Z,10.43
2023-04-17T14:10:36.357Z,11.15
2023-04-17T14:13:40.443Z,10.10
2023-04-17T14:16:46.352Z,9.02
2023-04-17T14:19:52.445Z,9.85
2023-04-17T14:22:55.865Z,9.63
2023-04-17T14:25:59.819Z,8.27
2023-04-17T14:29:04.285Z,7.97
2023-04-17T14:32:07.957Z,8.37
2023-04-17T14:35:13.267Z,7.80
2023-04-17T14:38:17.061Z,8.35
2023-04-17T14:41:21.267Z,8.93
2023-04-17T14:44:25.032Z,8.27
2023-04-17T14:47:30.024Z,8.63
2023-04-17T14:50:35.238Z,9.70
2023-04-17T14:53:38.885Z,8.57
2023-04-17T14:56:42.552Z,9.65
2023-04-17T14:59:46.547Z,9.30
2023-04-17T15:02:50.702Z,11.47
2023-04-17T15:05:57.035Z,15.80
2023-04-17T15:09:00.742Z,12.85
2023-04-17T15:12:04.480Z,11.00
2023-04-17T15:15:09.997Z,10.90
2023-04-17T15:18:14.239Z,12.13
2023-04-17T15:21:19.985Z,10.80
2023-04-17T15:24:24.039Z,11.20
2023-04-17T15:27:27.831Z,14.40
2023-04-17T15:30:32.140Z,9.90
2023-04-17T15:33:35.987Z,10.87
2023-04-17T15:36:41.099Z,12.40
2023-04-17T15:39:44.771Z,8.95
2023-04-17T15:42:48.496Z,10.23
2023-04-17T15:45:53.277Z,10.13
2023-04-17T15:49:08.374Z,10.05
2023-04-17T15:52:14.450Z,12.07
2023-04-17T15:55:18.423Z,12.87
2023-04-17T15:58:22.198Z,11.73
2023-04-17T16:01:26.636Z,12.80
2023-04-17T16:04:30.460Z,10.83
2023-04-17T16:07:35.921Z,10.32
2023-04-17T16:10:39.563Z,9.93
2023-04-17T16:13:43.383Z,10.25
2023-04-17T16:16:46.999Z,12.90
2023-04-17T16:19:50.974Z,13.15
2023-04-17T16:22:56.133Z,11.98
2023-04-17T16:25:59.876Z,11.70
2023-04-17T16:29:03.627Z,12.65
2023-04-17T16:32:07.489Z,15.27
2023-04-17T16:35:11.399Z,12.90
2023-04-17T16:38:16.522Z,14.93
2023-04-17T16:41:20.411Z,15.65
2023-04-17T16:44:24.062Z,15.48
2023-04-17T16:47:30.424Z,14.70
2023-04-17T16:50:34.163Z,16.92
2023-04-17T16:53:41.176Z,15.00
2023-04-17T16:56:45.021Z,9.50
2023-04-17T16:59:48.649Z,9.98
2023-04-17T17:02:52.400Z,7.95
2023-04-17T17:05:57.363Z,8.60
2023-04-17T17:09:02.593Z,9.23
2023-04-17T17:12:06.855Z,13.45
2023-04-17T17:15:11.858Z,11.38
2023-04-17T17:18:15.724Z,11.38
2023-04-17T17:21:19.448Z,15.80
2023-04-17T17:24:24.797Z,13.77
2023-04-17T17:27:28.606Z,13.10
2023-04-17T17:30:32.250Z,14.77
2023-04-17T17:33:36.202Z,19.02
2023-04-17T17:36:39.888Z,16.07
2023-04-17T17:39:45.166Z,14.23
2023-04-17T17:42:49.044Z,15.45
2023-04-17T17:45:53.862Z,11.45
2023-04-17T17:48:57.623Z,11.57
2023-04-17T17:52:01.070Z,11.40
2023-04-17T17:55:07.312Z,11.02
2023-04-17T17:58:11.059Z,7.40
2023-04-17T18:01:16.111Z,7.80
2023-04-17T18:04:20.183Z,7.05
2023-04-17T18:07:25.550Z,7.43
2023-04-17T18:10:30.664Z,7.35
2023-04-17T18:13:34.364Z,7.32
2023-04-17T18:16:38.297Z,6.15
2023-04-17T18:19:42.811Z,8.60
2023-04-17T18:22:46.654Z,8.32
2023-04-17T18:25:59.730Z,10.77
2023-04-17T18:29:03.785Z,8.03
2023-04-17T18:32:07.680Z,8.82
2023-04-17T18:35:11.897Z,10.60
2023-04-17T18:38:16.705Z,8.57
2023-04-17T18:41:23.004Z,9.88
2023-04-17T18:44:26.794Z,9.98
2023-04-17T18:47:30.548Z,11.20
2023-04-17T18:50:34.729Z,10.73
2023-04-17T18:53:38.360Z,10.13
2023-04-17T18:56:43.848Z,10.88
2023-04-17T18:59:47.530Z,10.97
2023-04-17T19:02:51.247Z,11.10
2023-04-17T19:05:55.056Z,11.02
2023-04-17T19:08:59.044Z,10.43
2023-04-17T19:12:04.624Z,12.20
2023-04-17T19:15:11.135Z,10.05
2023-04-17T19:18:15.275Z,11.95
2023-04-17T19:21:18.979Z,9.82
2023-04-17T19:24:22.773Z,8.60
2023-04-17T19:27:28.170Z,10.82
2023-04-17T19:30:31.739Z,10.87
2023-04-17T19:33:35.632Z,8.90
2023-04-17T19:36:40.001Z,9.05
2023-04-17T19:39:43.640Z,9.53
2023-04-17T19:42:48.714Z,12.48
2023-04-17T19:45:52.376Z,12.38
2023-04-17T19:48:56.116Z,11.20
2023-04-17T19:52:00.942Z,9.85
2023-04-17T19:55:08.239Z,10.05
2023-04-17T19:58:13.433Z,9.63
2023-04-17T20:01:17.155Z,10.57
2023-04-17T20:04:20.999Z,11.82
2023-04-17T20:07:24.483Z,8.98
2023-04-17T20:10:28.574Z,11.93
2023-04-17T20:13:33.678Z,12.68
2023-04-17T20:16:37.404Z,8.40
2023-04-17T20:19:41.450Z,9.48
2023-04-17T20:22:45.270Z,10.00
2023-04-17T20:25:49.224Z,9.45
2023-04-17T20:28:55.156Z,10.20
2023-04-17T20:31:58.770Z,8.00
2023-04-17T20:35:03.889Z,11.88
2023-04-17T20:38:08.058Z,9.98
2023-04-17T20:41:11.755Z,9.17
2023-04-17T20:44:18.626Z,10.18
2023-04-17T20:47:22.270Z,9.65
2023-04-17T20:50:25.963Z,9.40
2023-04-17T20:53:29.594Z,7.88
2023-04-17T20:56:33.271Z,7.82
2023-04-17T20:59:38.302Z,8.43
2023-04-17T21:02:42.146Z,8.30
2023-04-17T21:05:46.214Z,6.87
2023-04-17T21:08:50.158Z,7.72
2023-04-17T21:11:53.806Z,7.53
2023-04-17T21:14:58.781Z,8.90
2023-04-17T21:18:02.451Z,8.15
2023-04-17T21:21:06.717Z,8.02
2023-04-17T21:24:11.293Z,9.00
2023-04-17T21:27:15.519Z,8.43
2023-04-17T21:30:20.728Z,10.35
2023-04-17T21:33:24.371Z,7.97
2023-04-17T21:36:28.597Z,7.53
2023-04-17T21:39:33.046Z,7.72
2023-04-17T21:42:37.136Z,6.00
2023-04-17T21:45:42.303Z,6.25
2023-04-17T21:48:45.996Z,6.43
2023-04-17T21:51:49.756Z,7.65
2023-04-17T21:54:53.521Z,7.40
2023-04-17T21:57:56.996Z,10.60
2023-04-17T22:01:02.133Z,5.82
2023-04-17T22:04:06.203Z,5.10
2023-04-17T22:07:09.945Z,6.95
2023-04-17T22:10:13.693Z,6.60
2023-04-17T22:13:17.373Z,7.07
2023-04-17T22:16:22.523Z,6.75
2023-04-17T22:19:26.271Z,6.78
2023-04-17T22:22:30.111Z,6.90
2023-04-17T22:25:33.931Z,5.38
2023-04-17T22:28:37.639Z,5.97
2023-04-17T22:31:42.686Z,8.15
2023-04-17T22:34:49.257Z,6.43
2023-04-17T22:37:52.900Z,6.15
2023-04-17T22:40:56.696Z,5.95
2023-04-17T22:44:00.359Z,7.17
2023-04-17T22:47:05.506Z,6.05
2023-04-17T22:50:11.745Z,5.10
2023-04-17T22:53:15.664Z,5.57
2023-04-17T22:56:19.310Z,5.10
2023-04-17T22:59:22.854Z,9.32
2023-04-17T23:02:27.949Z,4.35
2023-04-17T23:05:31.756Z,6.03
2023-04-17T23:08:35.465Z,4.65
2023-04-17T23:11:39.036Z,5.22
2023-04-17T23:14:43.450Z,5.90
2023-04-17T23:17:49.138Z,4.82
2023-04-17T23:20:52.982Z,4.60
2023-04-17T23:23:57.306Z,6.35
2023-04-17T23:27:01.883Z,4.57
2023-04-17T23:30:06.769Z,5.35
2023-04-17T23:33:11.848Z,4.45
2023-04-17T23:36:15.806Z,5.37
2023-04-17T23:39:19.555Z,4.65
2023-04-17T23:42:23.266Z,4.45
2023-04-17T23:45:27.105Z,9.53
2023-04-17T23:48:32.209Z,3.72
2023-04-17T23:51:36.062Z,5.75
2023-04-17T23:54:39.847Z,5.05
2023-04-17T23:57:43.563Z,3.70
